sensor_id;sensor_type;location;lat;lon;timestamp;P1;durP1;ratioP1;P2;durP2;ratioP2
54235;SDS011;40151;43.606;1.472;2022-08-04T00:01:12;4.20;;;2.33;;
54235;SDS011;40151;43.606;1.472;2022-08-04T00:03:54;2.97;;;2.42;;
54235;SDS011;40151;43.606;1.472;2022-08-04T00:06:36;4.13;;;2.63;;
54235;SDS011;40151;43.606;1.472;2022-08-04T00:10:09;3.85;;;2.60;;
54235;SDS011;40151;43.606;1.472;2022-08-04T00:12:12;4.32;;;2.90;;
54235;SDS011;40151;43.606;1.472;2022-08-04T00:14:45;3.50;;;2.35;;
54235;SDS011;40151;43.606;1.472;2022-08-04T00:17:13;2.80;;;2.22;;
54235;SDS011;40151;43.606;1.472;2022-08-04T00:19:43;3.60;;;2.58;;
54235;SDS011;40151;43.606;1.472;2022-08-04T00:22:12;5.05;;;2.60;;
54235;SDS011;40151;43.606;1.472;2022-08-04T00:24:39;2.90;;;2.33;;
54235;SDS011;40151;43.606;1.472;2022-08-04T00:27:06;3.78;;;2.65;;
54235;SDS011;40151;43.606;1.472;2022-08-04T00:29:33;3.17;;;2.50;;
54235;SDS011;40151;43.606;1.472;2022-08-04T00:31:59;4.25;;;2.70;;
54235;SDS011;40151;43.606;1.472;2022-08-04T00:34:28;3.72;;;2.65;;
54235;SDS011;40151;43.606;1.472;2022-08-04T00:36:56;4.20;;;3.03;;
54235;SDS011;40151;43.606;1.472;2022-08-04T00:39:23;2.80;;;2.13;;
54235;SDS011;40151;43.606;1.472;2022-08-04T00:41:52;2.90;;;2.13;;
54235;SDS011;40151;43.606;1.472;2022-08-04T00:44:44;3.92;;;2.70;;
54235;SDS011;40151;43.606;1.472;2022-08-04T00:47:43;3.20;;;2.10;;
54235;SDS011;40151;43.606;1.472;2022-08-04T00:53:28;3.28;;;2.40;;
54235;SDS011;40151;43.606;1.472;2022-08-04T01:07:30;2.90;;;2.40;;
54235;SDS011;40151;43.606;1.472;2022-08-04T01:13:09;3.45;;;2.55;;
54235;SDS011;40151;43.606;1.472;2022-08-04T01:18:41;3.97;;;2.72;;
54235;SDS011;40151;43.606;1.472;2022-08-04T01:23:58;3.43;;;2.57;;
54235;SDS011;40151;43.606;1.472;2022-08-04T01:27:05;3.97;;;2.88;;
54235;SDS011;40151;43.606;1.472;2022-08-04T01:29:37;3.30;;;2.50;;
54235;SDS011;40151;43.606;1.472;2022-08-04T01:32:19;4.35;;;2.72;;
54235;SDS011;40151;43.606;1.472;2022-08-04T01:34:50;3.20;;;2.50;;
54235;SDS011;40151;43.606;1.472;2022-08-04T01:40:33;2.92;;;2.40;;
54235;SDS011;40151;43.606;1.472;2022-08-04T01:43:01;3.30;;;2.60;;
54235;SDS011;40151;43.606;1.472;2022-08-04T01:45:29;3.40;;;2.35;;
54235;SDS011;40151;43.606;1.472;2022-08-04T01:47:55;3.97;;;2.70;;
54235;SDS011;40151;43.606;1.472;2022-08-04T01:50:22;3.25;;;2.47;;
54235;SDS011;40151;43.606;1.472;2022-08-04T01:52:52;3.10;;;2.30;;
54235;SDS011;40151;43.606;1.472;2022-08-04T01:55:19;3.20;;;2.30;;
54235;SDS011;40151;43.606;1.472;2022-08-04T01:57:46;3.67;;;2.53;;
54235;SDS011;40151;43.606;1.472;2022-08-04T02:00:16;3.67;;;2.45;;
54235;SDS011;40151;43.606;1.472;2022-08-04T02:02:48;2.97;;;2.25;;
54235;SDS011;40151;43.606;1.472;2022-08-04T02:05:15;3.80;;;2.63;;
54235;SDS011;40151;43.606;1.472;2022-08-04T02:16:52;3.10;;;2.40;;
54235;SDS011;40151;43.606;1.472;2022-08-04T02:19:29;3.50;;;2.30;;
54235;SDS011;40151;43.606;1.472;2022-08-04T02:22:17;3.22;;;2.25;;
54235;SDS011;40151;43.606;1.472;2022-08-04T02:24:47;2.58;;;2.20;;
54235;SDS011;40151;43.606;1.472;2022-08-04T02:27:15;2.60;;;2.20;;
54235;SDS011;40151;43.606;1.472;2022-08-04T02:32:20;3.35;;;2.33;;
54235;SDS011;40151;43.606;1.472;2022-08-04T02:40:41;3.65;;;2.58;;
54235;SDS011;40151;43.606;1.472;2022-08-04T02:43:08;3.78;;;2.55;;
54235;SDS011;40151;43.606;1.472;2022-08-04T02:45:35;3.70;;;2.40;;
54235;SDS011;40151;43.606;1.472;2022-08-04T02:48:04;3.30;;;2.50;;
54235;SDS011;40151;43.606;1.472;2022-08-04T02:50:34;3.33;;;2.63;;
54235;SDS011;40151;43.606;1.472;2022-08-04T02:53:03;3.90;;;2.67;;
54235;SDS011;40151;43.606;1.472;2022-08-04T02:55:29;3.53;;;2.70;;
54235;SDS011;40151;43.606;1.472;2022-08-04T02:57:57;3.70;;;2.60;;
54235;SDS011;40151;43.606;1.472;2022-08-04T03:00:26;3.05;;;2.38;;
54235;SDS011;40151;43.606;1.472;2022-08-04T03:03:07;4.25;;;2.58;;
54235;SDS011;40151;43.606;1.472;2022-08-04T03:05:40;3.88;;;2.90;;
54235;SDS011;40151;43.606;1.472;2022-08-04T03:20:12;4.53;;;2.78;;
54235;SDS011;40151;43.606;1.472;2022-08-04T03:28:26;4.43;;;3.13;;
54235;SDS011;40151;43.606;1.472;2022-08-04T03:37:07;4.07;;;2.67;;
54235;SDS011;40151;43.606;1.472;2022-08-04T03:42:54;3.97;;;2.67;;
54235;SDS011;40151;43.606;1.472;2022-08-04T04:09:18;4.13;;;2.53;;
54235;SDS011;40151;43.606;1.472;2022-08-04T04:11:57;4.75;;;2.72;;
54235;SDS011;40151;43.606;1.472;2022-08-04T04:15:18;4.40;;;2.72;;
54235;SDS011;40151;43.606;1.472;2022-08-04T04:26:33;3.53;;;2.50;;
54235;SDS011;40151;43.606;1.472;2022-08-04T04:38:12;3.92;;;2.90;;
54235;SDS011;40151;43.606;1.472;2022-08-04T04:46:42;3.28;;;2.63;;
54235;SDS011;40151;43.606;1.472;2022-08-04T04:52:06;3.15;;;2.42;;
54235;SDS011;40151;43.606;1.472;2022-08-04T04:54:38;3.42;;;2.30;;
54235;SDS011;40151;43.606;1.472;2022-08-04T04:57:16;4.25;;;2.47;;
54235;SDS011;40151;43.606;1.472;2022-08-04T05:05:19;5.10;;;2.85;;
54235;SDS011;40151;43.606;1.472;2022-08-04T05:16:43;3.60;;;2.50;;
54235;SDS011;40151;43.606;1.472;2022-08-04T05:19:17;3.65;;;2.60;;
54235;SDS011;40151;43.606;1.472;2022-08-04T05:21:48;4.93;;;2.72;;
54235;SDS011;40151;43.606;1.472;2022-08-04T05:24:18;4.53;;;2.30;;
54235;SDS011;40151;43.606;1.472;2022-08-04T05:26:51;3.95;;;2.30;;
54235;SDS011;40151;43.606;1.472;2022-08-04T05:29:27;4.00;;;2.60;;
54235;SDS011;40151;43.606;1.472;2022-08-04T05:31:56;4.15;;;2.30;;
54235;SDS011;40151;43.606;1.472;2022-08-04T05:34:38;4.15;;;2.67;;
54235;SDS011;40151;43.606;1.472;2022-08-04T05:37:08;3.72;;;2.53;;
54235;SDS011;40151;43.606;1.472;2022-08-04T05:39:46;3.92;;;2.70;;
54235;SDS011;40151;43.606;1.472;2022-08-04T05:42:17;3.95;;;3.00;;
54235;SDS011;40151;43.606;1.472;2022-08-04T05:44:44;6.05;;;2.85;;
54235;SDS011;40151;43.606;1.472;2022-08-04T05:47:10;4.30;;;2.50;;
54235;SDS011;40151;43.606;1.472;2022-08-04T05:49:38;3.88;;;2.47;;
54235;SDS011;40151;43.606;1.472;2022-08-04T05:52:05;4.68;;;3.05;;
54235;SDS011;40151;43.606;1.472;2022-08-04T05:54:32;4.03;;;2.70;;
54235;SDS011;40151;43.606;1.472;2022-08-04T05:57:00;3.80;;;2.20;;
54235;SDS011;40151;43.606;1.472;2022-08-04T05:59:28;3.58;;;2.20;;
54235;SDS011;40151;43.606;1.472;2022-08-04T06:01:55;3.65;;;2.60;;
54235;SDS011;40151;43.606;1.472;2022-08-04T06:04:27;3.90;;;2.70;;
54235;SDS011;40151;43.606;1.472;2022-08-04T06:06:59;5.90;;;2.22;;
54235;SDS011;40151;43.606;1.472;2022-08-04T06:09:25;4.40;;;2.67;;
54235;SDS011;40151;43.606;1.472;2022-08-04T06:11:52;4.85;;;2.85;;
54235;SDS011;40151;43.606;1.472;2022-08-04T06:14:20;4.10;;;2.47;;
54235;SDS011;40151;43.606;1.472;2022-08-04T06:16:48;4.13;;;2.63;;
54235;SDS011;40151;43.606;1.472;2022-08-04T06:19:15;4.22;;;2.88;;
54235;SDS011;40151;43.606;1.472;2022-08-04T06:21:44;3.97;;;2.75;;
54235;SDS011;40151;43.606;1.472;2022-08-04T06:24:15;5.63;;;2.65;;
54235;SDS011;40151;43.606;1.472;2022-08-04T06:26:43;4.55;;;3.00;;
54235;SDS011;40151;43.606;1.472;2022-08-04T06:29:11;3.60;;;2.65;;
54235;SDS011;40151;43.606;1.472;2022-08-04T06:31:48;4.10;;;2.80;;
54235;SDS011;40151;43.606;1.472;2022-08-04T06:34:26;4.18;;;2.95;;
54235;SDS011;40151;43.606;1.472;2022-08-04T06:36:54;3.92;;;2.58;;
54235;SDS011;40151;43.606;1.472;2022-08-04T06:39:22;4.43;;;2.88;;
54235;SDS011;40151;43.606;1.472;2022-08-04T06:41:51;4.68;;;2.60;;
54235;SDS011;40151;43.606;1.472;2022-08-04T06:44:18;5.18;;;2.55;;
54235;SDS011;40151;43.606;1.472;2022-08-04T06:46:45;4.85;;;3.08;;
54235;SDS011;40151;43.606;1.472;2022-08-04T06:49:12;3.95;;;2.72;;
54235;SDS011;40151;43.606;1.472;2022-08-04T06:51:38;4.78;;;3.60;;
54235;SDS011;40151;43.606;1.472;2022-08-04T06:54:09;4.20;;;2.88;;
54235;SDS011;40151;43.606;1.472;2022-08-04T06:56:40;4.72;;;2.88;;
54235;SDS011;40151;43.606;1.472;2022-08-04T06:59:09;3.58;;;2.58;;
54235;SDS011;40151;43.606;1.472;2022-08-04T07:01:38;4.47;;;2.75;;
54235;SDS011;40151;43.606;1.472;2022-08-04T07:04:05;6.20;;;3.35;;
54235;SDS011;40151;43.606;1.472;2022-08-04T07:06:32;4.47;;;2.75;;
54235;SDS011;40151;43.606;1.472;2022-08-04T07:08:59;5.60;;;3.55;;
54235;SDS011;40151;43.606;1.472;2022-08-04T07:11:36;5.43;;;3.25;;
54235;SDS011;40151;43.606;1.472;2022-08-04T07:14:03;4.53;;;3.25;;
54235;SDS011;40151;43.606;1.472;2022-08-04T07:16:29;5.40;;;3.35;;
54235;SDS011;40151;43.606;1.472;2022-08-04T07:18:56;4.97;;;3.35;;
54235;SDS011;40151;43.606;1.472;2022-08-04T07:21:22;4.22;;;3.03;;
54235;SDS011;40151;43.606;1.472;2022-08-04T07:23:49;5.43;;;3.70;;
54235;SDS011;40151;43.606;1.472;2022-08-04T07:26:15;5.25;;;3.53;;
54235;SDS011;40151;43.606;1.472;2022-08-04T07:28:43;5.20;;;3.50;;
54235;SDS011;40151;43.606;1.472;2022-08-04T07:31:10;6.47;;;3.40;;
54235;SDS011;40151;43.606;1.472;2022-08-04T07:33:40;4.63;;;3.20;;
54235;SDS011;40151;43.606;1.472;2022-08-04T07:36:07;5.40;;;3.55;;
54235;SDS011;40151;43.606;1.472;2022-08-04T07:38:33;5.10;;;3.25;;
54235;SDS011;40151;43.606;1.472;2022-08-04T07:40:59;5.55;;;3.50;;
54235;SDS011;40151;43.606;1.472;2022-08-04T07:43:28;5.00;;;3.95;;
54235;SDS011;40151;43.606;1.472;2022-08-04T07:45:55;4.72;;;3.30;;
54235;SDS011;40151;43.606;1.472;2022-08-04T07:48:22;5.90;;;3.58;;
54235;SDS011;40151;43.606;1.472;2022-08-04T07:50:49;4.93;;;3.55;;
54235;SDS011;40151;43.606;1.472;2022-08-04T07:53:15;5.82;;;3.85;;
54235;SDS011;40151;43.606;1.472;2022-08-04T07:55:44;5.95;;;3.88;;
54235;SDS011;40151;43.606;1.472;2022-08-04T07:58:10;6.03;;;3.97;;
54235;SDS011;40151;43.606;1.472;2022-08-04T08:00:37;5.28;;;3.88;;
54235;SDS011;40151;43.606;1.472;2022-08-04T08:03:04;4.88;;;3.60;;
54235;SDS011;40151;43.606;1.472;2022-08-04T08:05:32;5.57;;;4.10;;
54235;SDS011;40151;43.606;1.472;2022-08-04T08:07:58;8.20;;;3.50;;
54235;SDS011;40151;43.606;1.472;2022-08-04T08:10:29;5.95;;;3.90;;
54235;SDS011;40151;43.606;1.472;2022-08-04T08:12:55;4.28;;;3.53;;
54235;SDS011;40151;43.606;1.472;2022-08-04T08:15:22;5.47;;;4.45;;
54235;SDS011;40151;43.606;1.472;2022-08-04T08:17:49;5.65;;;3.97;;
54235;SDS011;40151;43.606;1.472;2022-08-04T08:20:15;5.00;;;4.22;;
54235;SDS011;40151;43.606;1.472;2022-08-04T08:22:41;6.47;;;4.22;;
54235;SDS011;40151;43.606;1.472;2022-08-04T08:25:07;4.68;;;3.55;;
54235;SDS011;40151;43.606;1.472;2022-08-04T08:27:35;6.28;;;4.40;;
54235;SDS011;40151;43.606;1.472;2022-08-04T08:30:02;5.72;;;4.28;;
54235;SDS011;40151;43.606;1.472;2022-08-04T08:32:29;5.18;;;3.95;;
54235;SDS011;40151;43.606;1.472;2022-08-04T08:34:56;5.47;;;3.92;;
54235;SDS011;40151;43.606;1.472;2022-08-04T08:37:36;5.68;;;4.22;;
54235;SDS011;40151;43.606;1.472;2022-08-04T08:46:09;5.30;;;4.38;;
54235;SDS011;40151;43.606;1.472;2022-08-04T08:58:02;5.22;;;3.88;;
54235;SDS011;40151;43.606;1.472;2022-08-04T09:03:16;4.82;;;3.78;;
54235;SDS011;40151;43.606;1.472;2022-08-04T09:09:14;6.22;;;3.45;;
54235;SDS011;40151;43.606;1.472;2022-08-04T09:17:32;5.40;;;4.10;;
54235;SDS011;40151;43.606;1.472;2022-08-04T09:20:06;7.80;;;4.80;;
54235;SDS011;40151;43.606;1.472;2022-08-04T09:25:13;5.05;;;4.25;;
54235;SDS011;40151;43.606;1.472;2022-08-04T09:27:49;5.18;;;4.18;;
54235;SDS011;40151;43.606;1.472;2022-08-04T09:36:06;5.53;;;4.45;;
54235;SDS011;40151;43.606;1.472;2022-08-04T09:38:48;6.03;;;4.45;;
54235;SDS011;40151;43.606;1.472;2022-08-04T09:46:38;6.03;;;4.20;;
54235;SDS011;40151;43.606;1.472;2022-08-04T09:49:53;5.43;;;4.40;;
54235;SDS011;40151;43.606;1.472;2022-08-04T09:52:40;4.53;;;4.07;;
54235;SDS011;40151;43.606;1.472;2022-08-04T10:01:02;4.97;;;4.47;;
54235;SDS011;40151;43.606;1.472;2022-08-04T10:03:38;5.85;;;5.05;;
54235;SDS011;40151;43.606;1.472;2022-08-04T10:22:51;6.32;;;4.95;;
54235;SDS011;40151;43.606;1.472;2022-08-04T10:25:46;6.43;;;5.13;;
54235;SDS011;40151;43.606;1.472;2022-08-04T10:28:35;5.45;;;4.50;;
54235;SDS011;40151;43.606;1.472;2022-08-04T10:31:22;5.60;;;4.38;;
54235;SDS011;40151;43.606;1.472;2022-08-04T10:34:01;5.40;;;4.30;;
54235;SDS011;40151;43.606;1.472;2022-08-04T10:36:58;5.70;;;4.60;;
54235;SDS011;40151;43.606;1.472;2022-08-04T10:39:41;6.05;;;4.93;;
54235;SDS011;40151;43.606;1.472;2022-08-04T10:42:52;5.97;;;4.20;;
54235;SDS011;40151;43.606;1.472;2022-08-04T10:45:43;6.10;;;4.53;;
54235;SDS011;40151;43.606;1.472;2022-08-04T10:55:16;6.70;;;5.18;;
54235;SDS011;40151;43.606;1.472;2022-08-04T10:58:25;6.60;;;4.38;;
54235;SDS011;40151;43.606;1.472;2022-08-04T11:01:38;5.97;;;4.75;;
54235;SDS011;40151;43.606;1.472;2022-08-04T11:04:22;5.53;;;4.45;;
54235;SDS011;40151;43.606;1.472;2022-08-04T11:07:07;5.85;;;4.60;;
54235;SDS011;40151;43.606;1.472;2022-08-04T11:09:38;5.53;;;4.15;;
54235;SDS011;40151;43.606;1.472;2022-08-04T11:12:13;5.22;;;4.43;;
54235;SDS011;40151;43.606;1.472;2022-08-04T11:15:01;5.72;;;4.85;;
54235;SDS011;40151;43.606;1.472;2022-08-04T11:17:52;5.05;;;4.20;;
54235;SDS011;40151;43.606;1.472;2022-08-04T11:20:37;4.97;;;4.30;;
54235;SDS011;40151;43.606;1.472;2022-08-04T11:23:14;5.35;;;4.53;;
54235;SDS011;40151;43.606;1.472;2022-08-04T11:28:26;5.33;;;4.50;;
54235;SDS011;40151;43.606;1.472;2022-08-04T11:33:43;5.50;;;4.20;;
54235;SDS011;40151;43.606;1.472;2022-08-04T11:39:14;4.70;;;4.07;;
54235;SDS011;40151;43.606;1.472;2022-08-04T11:47:26;6.75;;;5.13;;
54235;SDS011;40151;43.606;1.472;2022-08-04T11:50:04;6.05;;;4.90;;
54235;SDS011;40151;43.606;1.472;2022-08-04T11:52:37;5.80;;;4.45;;
54235;SDS011;40151;43.606;1.472;2022-08-04T11:55:06;5.50;;;4.32;;
54235;SDS011;40151;43.606;1.472;2022-08-04T11:57:35;4.82;;;4.32;;
54235;SDS011;40151;43.606;1.472;2022-08-04T12:00:03;5.07;;;4.25;;
54235;SDS011;40151;43.606;1.472;2022-08-04T12:05:40;5.07;;;4.38;;
54235;SDS011;40151;43.606;1.472;2022-08-04T12:11:09;5.30;;;4.40;;
54235;SDS011;40151;43.606;1.472;2022-08-04T12:17:10;5.38;;;4.78;;
54235;SDS011;40151;43.606;1.472;2022-08-04T12:19:23;5.38;;;4.72;;
54235;SDS011;40151;43.606;1.472;2022-08-04T12:21:56;5.05;;;4.13;;
54235;SDS011;40151;43.606;1.472;2022-08-04T12:24:44;5.57;;;4.97;;
54235;SDS011;40151;43.606;1.472;2022-08-04T12:27:24;6.35;;;4.72;;
54235;SDS011;40151;43.606;1.472;2022-08-04T12:29:55;4.82;;;4.20;;
54235;SDS011;40151;43.606;1.472;2022-08-04T12:32:28;5.82;;;5.10;;
54235;SDS011;40151;43.606;1.472;2022-08-04T12:35:12;5.15;;;4.60;;
54235;SDS011;40151;43.606;1.472;2022-08-04T12:40:44;5.57;;;4.93;;
54235;SDS011;40151;43.606;1.472;2022-08-04T12:43:12;6.22;;;4.95;;
54235;SDS011;40151;43.606;1.472;2022-08-04T12:45:50;5.32;;;4.45;;
54235;SDS011;40151;43.606;1.472;2022-08-04T12:48:17;5.70;;;4.63;;
54235;SDS011;40151;43.606;1.472;2022-08-04T12:50:49;4.85;;;4.35;;
54235;SDS011;40151;43.606;1.472;2022-08-04T12:53:17;5.78;;;4.88;;
54235;SDS011;40151;43.606;1.472;2022-08-04T12:55:46;4.95;;;4.45;;
54235;SDS011;40151;43.606;1.472;2022-08-04T12:58:15;5.65;;;5.05;;
54235;SDS011;40151;43.606;1.472;2022-08-04T13:00:52;5.20;;;4.50;;
54235;SDS011;40151;43.606;1.472;2022-08-04T13:03:21;5.05;;;4.50;;
54235;SDS011;40151;43.606;1.472;2022-08-04T13:05:52;5.90;;;4.88;;
54235;SDS011;40151;43.606;1.472;2022-08-04T13:08:20;6.93;;;5.07;;
54235;SDS011;40151;43.606;1.472;2022-08-04T13:10:48;6.15;;;5.22;;
54235;SDS011;40151;43.606;1.472;2022-08-04T13:16:27;5.13;;;4.60;;
54235;SDS011;40151;43.606;1.472;2022-08-04T13:19:04;5.32;;;4.82;;
54235;SDS011;40151;43.606;1.472;2022-08-04T13:21:59;7.20;;;5.30;;
54235;SDS011;40151;43.606;1.472;2022-08-04T13:24:41;5.60;;;5.07;;
54235;SDS011;40151;43.606;1.472;2022-08-04T13:27:09;7.50;;;5.22;;
54235;SDS011;40151;43.606;1.472;2022-08-04T13:29:48;5.68;;;5.07;;
54235;SDS011;40151;43.606;1.472;2022-08-04T13:32:59;5.30;;;4.80;;
54235;SDS011;40151;43.606;1.472;2022-08-04T13:35:26;5.95;;;5.35;;
54235;SDS011;40151;43.606;1.472;2022-08-04T13:37:53;5.68;;;4.85;;
54235;SDS011;40151;43.606;1.472;2022-08-04T13:40:21;5.50;;;4.63;;
54235;SDS011;40151;43.606;1.472;2022-08-04T13:42:54;5.50;;;5.00;;
54235;SDS011;40151;43.606;1.472;2022-08-04T13:45:36;6.38;;;5.55;;
54235;SDS011;40151;43.606;1.472;2022-08-04T13:48:15;6.57;;;5.35;;
54235;SDS011;40151;43.606;1.472;2022-08-04T13:50:44;6.90;;;5.38;;
54235;SDS011;40151;43.606;1.472;2022-08-04T13:53:11;5.57;;;4.80;;
54235;SDS011;40151;43.606;1.472;2022-08-04T13:55:37;5.35;;;4.28;;
54235;SDS011;40151;43.606;1.472;2022-08-04T13:58:10;6.45;;;5.13;;
54235;SDS011;40151;43.606;1.472;2022-08-04T14:00:46;5.75;;;5.15;;
54235;SDS011;40151;43.606;1.472;2022-08-04T14:06:32;6.65;;;5.13;;
54235;SDS011;40151;43.606;1.472;2022-08-04T14:09:20;5.57;;;4.97;;
54235;SDS011;40151;43.606;1.472;2022-08-04T14:11:48;6.40;;;5.25;;
54235;SDS011;40151;43.606;1.472;2022-08-04T14:14:17;5.60;;;5.00;;
54235;SDS011;40151;43.606;1.472;2022-08-04T14:17:04;5.50;;;4.90;;
54235;SDS011;40151;43.606;1.472;2022-08-04T14:22:51;5.75;;;5.07;;
54235;SDS011;40151;43.606;1.472;2022-08-04T14:25:27;6.22;;;5.03;;
54235;SDS011;40151;43.606;1.472;2022-08-04T14:27:55;5.75;;;5.13;;
54235;SDS011;40151;43.606;1.472;2022-08-04T14:30:30;6.00;;;4.78;;
54235;SDS011;40151;43.606;1.472;2022-08-04T14:33:10;5.68;;;5.07;;
54235;SDS011;40151;43.606;1.472;2022-08-04T14:35:37;5.75;;;5.00;;
54235;SDS011;40151;43.606;1.472;2022-08-04T14:38:10;5.15;;;4.60;;
54235;SDS011;40151;43.606;1.472;2022-08-04T14:40:39;6.00;;;5.20;;
54235;SDS011;40151;43.606;1.472;2022-08-04T14:43:07;5.85;;;5.25;;
54235;SDS011;40151;43.606;1.472;2022-08-04T14:48:06;6.95;;;5.22;;
54235;SDS011;40151;43.606;1.472;2022-08-04T14:50:39;5.28;;;4.43;;
54235;SDS011;40151;43.606;1.472;2022-08-04T14:53:19;5.65;;;5.05;;
54235;SDS011;40151;43.606;1.472;2022-08-04T14:55:48;5.38;;;4.70;;
54235;SDS011;40151;43.606;1.472;2022-08-04T14:58:20;5.38;;;4.88;;
54235;SDS011;40151;43.606;1.472;2022-08-04T15:03:49;5.75;;;5.15;;
54235;SDS011;40151;43.606;1.472;2022-08-04T15:06:15;5.63;;;4.68;;
54235;SDS011;40151;43.606;1.472;2022-08-04T15:12:32;6.57;;;5.18;;
54235;SDS011;40151;43.606;1.472;2022-08-04T15:15:12;5.85;;;5.00;;
54235;SDS011;40151;43.606;1.472;2022-08-04T15:17:44;6.47;;;5.38;;
54235;SDS011;40151;43.606;1.472;2022-08-04T15:20:21;6.53;;;5.10;;
54235;SDS011;40151;43.606;1.472;2022-08-04T15:22:47;5.93;;;5.15;;
54235;SDS011;40151;43.606;1.472;2022-08-04T15:25:16;6.03;;;4.90;;
54235;SDS011;40151;43.606;1.472;2022-08-04T15:27:45;6.25;;;5.20;;
54235;SDS011;40151;43.606;1.472;2022-08-04T15:30:13;5.82;;;5.22;;
54235;SDS011;40151;43.606;1.472;2022-08-04T15:36:14;5.30;;;4.80;;
54235;SDS011;40151;43.606;1.472;2022-08-04T15:39:05;5.78;;;5.15;;
54235;SDS011;40151;43.606;1.472;2022-08-04T15:41:56;5.68;;;5.13;;
54235;SDS011;40151;43.606;1.472;2022-08-04T15:47:15;5.38;;;4.78;;
54235;SDS011;40151;43.606;1.472;2022-08-04T15:49:42;6.00;;;5.40;;
54235;SDS011;40151;43.606;1.472;2022-08-04T15:58:02;5.53;;;4.95;;
54235;SDS011;40151;43.606;1.472;2022-08-04T16:01:16;5.72;;;5.10;;
54235;SDS011;40151;43.606;1.472;2022-08-04T16:09:19;5.80;;;5.20;;
54235;SDS011;40151;43.606;1.472;2022-08-04T16:16:26;6.30;;;5.25;;
54235;SDS011;40151;43.606;1.472;2022-08-04T16:19:33;5.70;;;5.07;;
54235;SDS011;40151;43.606;1.472;2022-08-04T16:25:02;6.75;;;5.15;;
54235;SDS011;40151;43.606;1.472;2022-08-04T16:27:47;5.55;;;4.88;;
54235;SDS011;40151;43.606;1.472;2022-08-04T16:30:13;5.65;;;5.15;;
54235;SDS011;40151;43.606;1.472;2022-08-04T16:32:42;5.55;;;4.95;;
54235;SDS011;40151;43.606;1.472;2022-08-04T16:35:18;5.72;;;5.10;;
54235;SDS011;40151;43.606;1.472;2022-08-04T16:37:45;6.25;;;5.22;;
54235;SDS011;40151;43.606;1.472;2022-08-04T16:43:01;5.60;;;4.82;;
54235;SDS011;40151;43.606;1.472;2022-08-04T16:48:06;6.20;;;5.60;;
54235;SDS011;40151;43.606;1.472;2022-08-04T16:50:33;6.45;;;5.82;;
54235;SDS011;40151;43.606;1.472;2022-08-04T16:53:11;6.75;;;5.63;;
54235;SDS011;40151;43.606;1.472;2022-08-04T16:55:37;6.28;;;5.68;;
54235;SDS011;40151;43.606;1.472;2022-08-04T16:58:04;5.72;;;4.82;;
54235;SDS011;40151;43.606;1.472;2022-08-04T17:00:41;5.70;;;5.03;;
54235;SDS011;40151;43.606;1.472;2022-08-04T17:03:48;5.88;;;5.28;;
54235;SDS011;40151;43.606;1.472;2022-08-04T17:06:32;7.63;;;4.65;;
54235;SDS011;40151;43.606;1.472;2022-08-04T17:09:20;8.43;;;5.68;;
54235;SDS011;40151;43.606;1.472;2022-08-04T17:12:09;7.68;;;5.63;;
54235;SDS011;40151;43.606;1.472;2022-08-04T17:14:44;6.40;;;5.63;;
54235;SDS011;40151;43.606;1.472;2022-08-04T17:17:24;5.57;;;5.05;;
54235;SDS011;40151;43.606;1.472;2022-08-04T17:19:51;6.55;;;5.82;;
54235;SDS011;40151;43.606;1.472;2022-08-04T17:22:21;7.15;;;6.40;;
54235;SDS011;40151;43.606;1.472;2022-08-04T17:24:53;8.70;;;6.03;;
54235;SDS011;40151;43.606;1.472;2022-08-04T17:27:24;8.52;;;5.78;;
54235;SDS011;40151;43.606;1.472;2022-08-04T17:29:50;8.38;;;5.78;;
54235;SDS011;40151;43.606;1.472;2022-08-04T17:32:16;7.32;;;5.55;;
54235;SDS011;40151;43.606;1.472;2022-08-04T17:34:48;8.10;;;5.70;;
54235;SDS011;40151;43.606;1.472;2022-08-04T17:37:15;7.13;;;5.32;;
54235;SDS011;40151;43.606;1.472;2022-08-04T17:39:42;6.53;;;5.38;;
54235;SDS011;40151;43.606;1.472;2022-08-04T17:42:08;6.95;;;5.70;;
54235;SDS011;40151;43.606;1.472;2022-08-04T17:44:35;8.40;;;5.40;;
54235;SDS011;40151;43.606;1.472;2022-08-04T17:47:22;6.15;;;5.10;;
54235;SDS011;40151;43.606;1.472;2022-08-04T17:50:05;7.88;;;5.80;;
54235;SDS011;40151;43.606;1.472;2022-08-04T17:52:56;8.98;;;5.97;;
54235;SDS011;40151;43.606;1.472;2022-08-04T17:55:39;6.80;;;5.40;;
54235;SDS011;40151;43.606;1.472;2022-08-04T17:58:19;7.18;;;4.90;;
54235;SDS011;40151;43.606;1.472;2022-08-04T18:00:59;7.10;;;5.53;;
54235;SDS011;40151;43.606;1.472;2022-08-04T18:03:27;7.30;;;5.40;;
54235;SDS011;40151;43.606;1.472;2022-08-04T18:05:55;6.85;;;5.18;;
54235;SDS011;40151;43.606;1.472;2022-08-04T18:11:56;6.97;;;5.18;;
54235;SDS011;40151;43.606;1.472;2022-08-04T18:14:41;7.57;;;5.13;;
54235;SDS011;40151;43.606;1.472;2022-08-04T18:20:12;7.60;;;5.25;;
54235;SDS011;40151;43.606;1.472;2022-08-04T18:22:49;6.07;;;4.95;;
54235;SDS011;40151;43.606;1.472;2022-08-04T18:25:16;6.50;;;4.53;;
54235;SDS011;40151;43.606;1.472;2022-08-04T18:27:46;6.35;;;4.90;;
54235;SDS011;40151;43.606;1.472;2022-08-04T18:30:20;6.07;;;4.88;;
54235;SDS011;40151;43.606;1.472;2022-08-04T18:32:48;7.40;;;5.28;;
54235;SDS011;40151;43.606;1.472;2022-08-04T18:35:13;6.07;;;5.10;;
54235;SDS011;40151;43.606;1.472;2022-08-04T18:37:40;5.97;;;4.90;;
54235;SDS011;40151;43.606;1.472;2022-08-04T18:40:20;5.78;;;4.90;;
54235;SDS011;40151;43.606;1.472;2022-08-04T18:42:55;5.95;;;5.35;;
54235;SDS011;40151;43.606;1.472;2022-08-04T18:45:23;6.45;;;5.13;;
54235;SDS011;40151;43.606;1.472;2022-08-04T18:47:55;6.28;;;4.63;;
54235;SDS011;40151;43.606;1.472;2022-08-04T18:50:31;6.00;;;4.95;;
54235;SDS011;40151;43.606;1.472;2022-08-04T18:53:56;6.65;;;5.10;;
54235;SDS011;40151;43.606;1.472;2022-08-04T18:56:43;6.25;;;5.15;;
54235;SDS011;40151;43.606;1.472;2022-08-04T18:59:44;7.85;;;4.90;;
54235;SDS011;40151;43.606;1.472;2022-08-04T19:02:15;5.97;;;4.63;;
54235;SDS011;40151;43.606;1.472;2022-08-04T19:04:43;6.10;;;5.47;;
54235;SDS011;40151;43.606;1.472;2022-08-04T19:07:39;8.43;;;5.05;;
54235;SDS011;40151;43.606;1.472;2022-08-04T19:10:07;6.22;;;4.93;;
54235;SDS011;40151;43.606;1.472;2022-08-04T19:12:38;5.97;;;4.97;;
54235;SDS011;40151;43.606;1.472;2022-08-04T19:15:19;7.88;;;5.22;;
54235;SDS011;40151;43.606;1.472;2022-08-04T19:18:00;6.22;;;5.47;;
54235;SDS011;40151;43.606;1.472;2022-08-04T19:20:49;6.18;;;5.43;;
54235;SDS011;40151;43.606;1.472;2022-08-04T19:26:38;6.35;;;5.13;;
54235;SDS011;40151;43.606;1.472;2022-08-04T19:29:08;8.02;;;5.30;;
54235;SDS011;40151;43.606;1.472;2022-08-04T19:38:03;7.50;;;5.78;;
54235;SDS011;40151;43.606;1.472;2022-08-04T19:40:33;6.38;;;5.10;;
54235;SDS011;40151;43.606;1.472;2022-08-04T19:43:14;6.65;;;5.53;;
54235;SDS011;40151;43.606;1.472;2022-08-04T19:45:45;7.47;;;5.35;;
54235;SDS011;40151;43.606;1.472;2022-08-04T19:48:11;6.38;;;5.15;;
54235;SDS011;40151;43.606;1.472;2022-08-04T19:50:37;6.15;;;5.47;;
54235;SDS011;40151;43.606;1.472;2022-08-04T19:53:03;6.00;;;5.13;;
54235;SDS011;40151;43.606;1.472;2022-08-04T19:55:32;6.10;;;5.40;;
54235;SDS011;40151;43.606;1.472;2022-08-04T19:58:02;7.05;;;5.47;;
54235;SDS011;40151;43.606;1.472;2022-08-04T20:00:29;6.57;;;5.50;;
54235;SDS011;40151;43.606;1.472;2022-08-04T20:02:59;6.28;;;5.68;;
54235;SDS011;40151;43.606;1.472;2022-08-04T20:05:38;6.55;;;5.43;;
54235;SDS011;40151;43.606;1.472;2022-08-04T20:08:08;6.97;;;5.60;;
54235;SDS011;40151;43.606;1.472;2022-08-04T20:10:34;6.22;;;5.32;;
54235;SDS011;40151;43.606;1.472;2022-08-04T20:13:02;6.40;;;5.80;;
54235;SDS011;40151;43.606;1.472;2022-08-04T20:15:41;7.38;;;6.05;;
54235;SDS011;40151;43.606;1.472;2022-08-04T20:18:10;6.10;;;5.50;;
54235;SDS011;40151;43.606;1.472;2022-08-04T20:20:36;6.53;;;5.57;;
54235;SDS011;40151;43.606;1.472;2022-08-04T20:23:02;6.45;;;5.75;;
54235;SDS011;40151;43.606;1.472;2022-08-04T20:25:28;7.22;;;5.93;;